Cotulla, Texas
Current Conditions -  °F | °C
As of 6:53 PM on Monday 22 Dec 2014 (Local Time) from KCOT Reporting Station
Clear Clear  
Wind Chill: 66°   Ceiling: Unl
Heat Index: 66°   Visibility: 10mi
Dew Point: 53°   Wind: 6mph
Humidity: 63%   Direction: 70°ENE
Pressure: 29.62"   Gusts: NA
Location:  28.44°N, 99.24°W
Report Text: KCOT 230053Z AUTO 07005KT 10SM CLR 19/12 A2962 RMK AO2 SLP024 T01890117
Loading
Personal Weather Stations






























Interactive Weather Map New forecast layout! Learn more

10-Day Weather Forecast

Advertisements
Track Severe Weather on mobile